createdAt,value
2023-02-11T00:03:24.041Z,72.21
2023-02-11T00:13:26.945Z,72.82
2023-02-11T00:23:29.415Z,72.99
2023-02-11T00:33:31.887Z,73.28
2023-02-11T00:43:35.686Z,72.70
2023-02-11T00:53:38.744Z,72.56
2023-02-11T01:03:41.547Z,72.89
2023-02-11T01:13:44.543Z,72.79
2023-02-11T01:23:47.119Z,75.44
2023-02-11T01:33:49.645Z,75.25
2023-02-11T01:43:52.162Z,76.30
2023-02-11T01:54:14.483Z,75.52
2023-02-11T02:04:19.073Z,75.32
2023-02-11T02:14:21.677Z,75.66
2023-02-11T02:25:01.164Z,78.26
2023-02-11T02:35:22.996Z,77.70
2023-02-11T02:45:25.452Z,77.24
2023-02-11T02:55:47.229Z,79.30
2023-02-11T03:06:16.552Z,81.74
2023-02-11T03:16:23.017Z,81.20
2023-02-11T03:26:28.575Z,80.05
2023-02-11T03:36:38.561Z,79.66
2023-02-11T03:46:48.045Z,79.58
2023-02-11T03:56:56.979Z,79.72
2023-02-11T04:06:59.434Z,79.76
2023-02-11T04:17:02.143Z,79.07
2023-02-11T04:27:04.793Z,78.84
2023-02-11T04:37:08.511Z,78.61
2023-02-11T04:47:13.493Z,79.85
2023-02-11T04:57:16.016Z,80.10
2023-02-11T05:07:18.720Z,81.57
2023-02-11T05:17:21.302Z,82.65
2023-02-11T05:27:23.799Z,81.78
2023-02-11T05:37:26.395Z,81.67
2023-02-11T05:47:29.316Z,80.56
2023-02-11T05:57:31.755Z,80.01
2023-02-11T06:07:34.424Z,79.87
2023-02-11T06:17:37.499Z,79.48
2023-02-11T06:27:40.562Z,79.47
2023-02-11T06:37:43.388Z,78.67
2023-02-11T06:47:45.873Z,77.77
2023-02-11T06:57:48.443Z,77.41
2023-02-11T07:07:50.990Z,74.95
2023-02-11T07:17:53.626Z,74.48
2023-02-11T07:27:56.849Z,72.24
2023-02-11T07:37:59.373Z,71.75
2023-02-11T07:48:01.955Z,71.68
2023-02-11T07:58:04.449Z,70.73
2023-02-11T08:08:07.037Z,72.42
2023-02-11T08:18:09.554Z,68.05
2023-02-11T08:28:12.079Z,67.89
2023-02-11T08:38:14.602Z,70.25
2023-02-11T08:48:17.105Z,67.79
2023-02-11T08:58:20.660Z,65.16
2023-02-11T09:08:24.320Z,62.92
2023-02-11T09:18:28.505Z,61.11
2023-02-11T09:28:30.970Z,59.01
2023-02-11T09:38:33.906Z,56.92
2023-02-11T09:48:42.028Z,56.72
2023-02-11T09:58:45.349Z,56.58
2023-02-11T10:09:06.886Z,51.05
2023-02-11T10:19:35.476Z,48.99
2023-02-11T10:29:46.322Z,48.60
2023-02-11T10:39:48.771Z,50.89
2023-02-11T10:49:52.015Z,49.04
2023-02-11T11:00:00.355Z,37.87
2023-02-11T11:10:25.168Z,36.19
2023-02-11T11:20:30.494Z,39.88
2023-02-11T11:30:42.855Z,41.48
2023-02-11T11:40:45.432Z,38.42
2023-02-11T11:50:53.851Z,38.93
2023-02-11T12:01:05.106Z,39.61
2023-02-11T12:11:22.958Z,40.73
2023-02-11T12:21:52.271Z,41.31
2023-02-11T12:32:08.035Z,39.48
2023-02-11T12:43:09.031Z,36.18
2023-02-11T12:53:37.096Z,35.56
2023-02-11T13:03:45.224Z,30.38
2023-02-11T13:14:11.782Z,32.01
2023-02-11T13:24:20.247Z,34.90
2023-02-11T13:34:47.096Z,37.80
2023-02-11T13:44:50.204Z,38.99
2023-02-11T13:54:54.755Z,39.38
2023-02-11T14:05:24.757Z,40.30
2023-02-11T14:15:27.922Z,41.08
2023-02-11T14:25:31.086Z,42.14
2023-02-11T14:35:39.538Z,42.99
2023-02-11T14:45:51.190Z,44.18
2023-02-11T14:55:55.632Z,43.66
2023-02-11T15:06:18.487Z,42.79
2023-02-11T15:16:24.920Z,43.68
2023-02-11T15:26:29.139Z,43.84
2023-02-11T15:36:34.296Z,44.65
2023-02-11T15:46:39.513Z,43.55
2023-02-11T15:56:45.023Z,44.54
2023-02-11T16:06:48.436Z,45.17
2023-02-11T16:16:54.458Z,46.21
2023-02-11T16:27:02.832Z,46.83
2023-02-11T16:37:06.151Z,47.04
2023-02-11T16:47:20.707Z,48.01
2023-02-11T16:57:26.928Z,49.20
2023-02-11T17:07:31.281Z,49.25
2023-02-11T17:17:33.973Z,49.35
2023-02-11T17:27:36.763Z,52.85
2023-02-11T17:37:39.281Z,53.74
2023-02-11T17:47:42.147Z,54.50
2023-02-11T17:57:44.889Z,57.14
2023-02-11T18:07:48.585Z,58.33
2023-02-11T18:17:51.338Z,59.21
2023-02-11T18:27:56.197Z,57.66
2023-02-11T18:37:58.741Z,57.12
2023-02-11T18:48:03.753Z,59.26
2023-02-11T18:58:07.245Z,62.16
2023-02-11T19:08:09.835Z,62.81
2023-02-11T19:18:14.357Z,64.66
2023-02-11T19:28:17.409Z,64.96
2023-02-11T19:38:23.479Z,63.88
2023-02-11T19:48:27.280Z,62.48
2023-02-11T19:58:30.055Z,63.91
2023-02-11T20:08:33.325Z,62.90
2023-02-11T20:18:36.923Z,64.98
2023-02-11T20:28:39.694Z,64.96
2023-02-11T20:38:43.153Z,65.57
2023-02-11T20:48:46.414Z,61.55
2023-02-11T20:58:50.063Z,63.08
2023-02-11T21:08:54.135Z,64.15
2023-02-11T21:18:57.555Z,64.72
2023-02-11T21:28:59.977Z,63.89
2023-02-11T21:39:04.087Z,65.54
2023-02-11T21:49:07.847Z,66.36
2023-02-11T21:59:14.053Z,66.58
2023-02-11T22:09:17.004Z,68.94
2023-02-11T22:19:19.603Z,66.53
2023-02-11T22:29:22.347Z,66.02
2023-02-11T22:39:25.295Z,70.07
2023-02-11T22:49:29.026Z,67.35
2023-02-11T22:59:31.507Z,65.33
2023-02-11T23:09:34.059Z,65.09
2023-02-11T23:19:36.838Z,64.57
2023-02-11T23:29:39.413Z,64.74
2023-02-11T23:39:41.925Z,64.79
2023-02-11T23:49:44.564Z,66.22
2023-02-11T23:59:49.781Z,66.51
